sensor_id;sensor_type;location;lat;lon;timestamp;P1;durP1;ratioP1;P2;durP2;ratioP2
66581;SDS011;53438;48.898;2.308;2023-07-09T03:00:36;9.80;;;5.68;;
66581;SDS011;53438;48.898;2.308;2023-07-09T03:03:02;10.50;;;5.57;;
66581;SDS011;53438;48.898;2.308;2023-07-09T03:05:27;10.23;;;5.30;;
66581;SDS011;53438;48.898;2.308;2023-07-09T03:07:52;8.07;;;5.03;;
66581;SDS011;53438;48.898;2.308;2023-07-09T03:10:18;11.23;;;5.90;;
66581;SDS011;53438;48.898;2.308;2023-07-09T03:12:43;7.97;;;4.93;;
66581;SDS011;53438;48.898;2.308;2023-07-09T03:15:08;9.15;;;5.55;;
66581;SDS011;53438;48.898;2.308;2023-07-09T03:17:34;9.35;;;5.15;;
66581;SDS011;53438;48.898;2.308;2023-07-09T03:19:59;7.83;;;5.33;;
66581;SDS011;53438;48.898;2.308;2023-07-09T03:22:25;9.87;;;5.40;;
66581;SDS011;53438;48.898;2.308;2023-07-09T03:24:50;9.13;;;5.07;;
66581;SDS011;53438;48.898;2.308;2023-07-09T03:27:15;8.03;;;5.30;;
66581;SDS011;53438;48.898;2.308;2023-07-09T03:29:41;7.40;;;5.30;;
66581;SDS011;53438;48.898;2.308;2023-07-09T03:32:06;8.50;;;5.40;;
66581;SDS011;53438;48.898;2.308;2023-07-09T03:34:31;8.83;;;5.07;;
66581;SDS011;53438;48.898;2.308;2023-07-09T03:36:57;8.57;;;4.70;;
66581;SDS011;53438;48.898;2.308;2023-07-09T03:39:22;9.47;;;4.70;;
66581;SDS011;53438;48.898;2.308;2023-07-09T03:41:48;7.90;;;4.67;;
66581;SDS011;53438;48.898;2.308;2023-07-09T03:44:13;7.68;;;4.75;;
66581;SDS011;53438;48.898;2.308;2023-07-09T03:46:39;8.67;;;4.87;;
66581;SDS011;53438;48.898;2.308;2023-07-09T03:49:04;8.13;;;4.90;;
66581;SDS011;53438;48.898;2.308;2023-07-09T03:51:29;8.67;;;4.77;;
66581;SDS011;53438;48.898;2.308;2023-07-09T03:53:55;7.40;;;4.63;;
66581;SDS011;53438;48.898;2.308;2023-07-09T03:56:20;8.43;;;4.90;;
66581;SDS011;53438;48.898;2.308;2023-07-09T03:58:46;9.70;;;4.80;;
66581;SDS011;53438;48.898;2.308;2023-07-09T04:01:11;7.50;;;5.03;;
66581;SDS011;53438;48.898;2.308;2023-07-09T04:03:37;13.23;;;5.10;;
66581;SDS011;53438;48.898;2.308;2023-07-09T04:06:02;10.88;;;4.97;;
66581;SDS011;53438;48.898;2.308;2023-07-09T04:08:28;11.77;;;4.87;;
66581;SDS011;53438;48.898;2.308;2023-07-09T04:10:54;8.47;;;4.97;;
66581;SDS011;53438;48.898;2.308;2023-07-09T04:13:21;9.52;;;5.18;;
66581;SDS011;53438;48.898;2.308;2023-07-09T04:15:47;6.85;;;5.10;;
66581;SDS011;53438;48.898;2.308;2023-07-09T04:18:12;7.67;;;4.50;;
66581;SDS011;53438;48.898;2.308;2023-07-09T04:20:38;8.40;;;5.13;;
66581;SDS011;53438;48.898;2.308;2023-07-09T04:23:03;9.27;;;5.07;;
66581;SDS011;53438;48.898;2.308;2023-07-09T04:25:31;7.57;;;4.43;;
66581;SDS011;53438;48.898;2.308;2023-07-09T04:27:56;9.33;;;4.20;;
66581;SDS011;53438;48.898;2.308;2023-07-09T04:30:22;8.90;;;4.80;;
66581;SDS011;53438;48.898;2.308;2023-07-09T04:32:48;9.30;;;4.50;;
66581;SDS011;53438;48.898;2.308;2023-07-09T04:35:13;9.63;;;4.10;;
66581;SDS011;53438;48.898;2.308;2023-07-09T04:37:39;8.45;;;4.13;;
66581;SDS011;53438;48.898;2.308;2023-07-09T04:40:06;10.85;;;3.70;;
66581;SDS011;53438;48.898;2.308;2023-07-09T04:42:35;8.57;;;4.00;;
66581;SDS011;53438;48.898;2.308;2023-07-09T04:45:01;8.00;;;4.03;;
66581;SDS011;53438;48.898;2.308;2023-07-09T04:47:27;8.40;;;4.83;;
66581;SDS011;53438;48.898;2.308;2023-07-09T04:49:52;8.83;;;4.40;;
66581;SDS011;53438;48.898;2.308;2023-07-09T04:52:17;7.17;;;4.27;;
66581;SDS011;53438;48.898;2.308;2023-07-09T04:54:43;8.77;;;4.10;;
66581;SDS011;53438;48.898;2.308;2023-07-09T04:57:09;7.75;;;4.32;;
66581;SDS011;53438;48.898;2.308;2023-07-09T04:59:35;6.43;;;4.10;;
66581;SDS011;53438;48.898;2.308;2023-07-09T05:02:03;7.45;;;4.60;;
66581;SDS011;53438;48.898;2.308;2023-07-09T05:04:29;6.25;;;4.00;;
66581;SDS011;53438;48.898;2.308;2023-07-09T05:06:54;7.78;;;4.15;;
66581;SDS011;53438;48.898;2.308;2023-07-09T05:09:21;6.72;;;4.45;;
66581;SDS011;53438;48.898;2.308;2023-07-09T05:11:48;8.65;;;4.60;;
66581;SDS011;53438;48.898;2.308;2023-07-09T05:14:14;9.23;;;4.10;;
66581;SDS011;53438;48.898;2.308;2023-07-09T05:16:40;7.47;;;4.45;;
66581;SDS011;53438;48.898;2.308;2023-07-09T05:19:06;5.40;;;4.23;;
66581;SDS011;53438;48.898;2.308;2023-07-09T05:21:33;8.05;;;5.22;;
66581;SDS011;53438;48.898;2.308;2023-07-09T05:23:59;7.17;;;3.80;;
66581;SDS011;53438;48.898;2.308;2023-07-09T05:26:24;9.18;;;3.58;;
66581;SDS011;53438;48.898;2.308;2023-07-09T05:28:50;6.90;;;4.13;;
66581;SDS011;53438;48.898;2.308;2023-07-09T05:31:15;9.00;;;4.07;;
66581;SDS011;53438;48.898;2.308;2023-07-09T05:33:41;5.70;;;3.63;;
66581;SDS011;53438;48.898;2.308;2023-07-09T05:36:07;6.40;;;4.03;;
66581;SDS011;53438;48.898;2.308;2023-07-09T05:38:33;7.07;;;3.83;;
66581;SDS011;53438;48.898;2.308;2023-07-09T05:41:02;9.83;;;3.90;;
66581;SDS011;53438;48.898;2.308;2023-07-09T05:43:29;6.28;;;4.15;;
66581;SDS011;53438;48.898;2.308;2023-07-09T05:45:56;8.95;;;4.15;;
66581;SDS011;53438;48.898;2.308;2023-07-09T05:48:21;6.93;;;3.47;;
66581;SDS011;53438;48.898;2.308;2023-07-09T05:50:48;4.77;;;3.20;;
66581;SDS011;53438;48.898;2.308;2023-07-09T05:53:13;6.13;;;3.90;;
66581;SDS011;53438;48.898;2.308;2023-07-09T05:55:39;6.70;;;3.90;;
66581;SDS011;53438;48.898;2.308;2023-07-09T05:58:04;5.50;;;3.40;;
66581;SDS011;53438;48.898;2.308;2023-07-09T06:00:29;5.17;;;3.57;;
66581;SDS011;53438;48.898;2.308;2023-07-09T06:02:55;6.75;;;4.13;;
66581;SDS011;53438;48.898;2.308;2023-07-09T06:05:21;5.57;;;3.88;;
66581;SDS011;53438;48.898;2.308;2023-07-09T06:07:46;4.88;;;3.45;;
66581;SDS011;53438;48.898;2.308;2023-07-09T06:10:12;10.47;;;3.90;;
66581;SDS011;53438;48.898;2.308;2023-07-09T06:12:38;5.72;;;3.42;;
66581;SDS011;53438;48.898;2.308;2023-07-09T06:15:05;5.53;;;3.42;;
66581;SDS011;53438;48.898;2.308;2023-07-09T06:17:31;5.68;;;3.47;;
66581;SDS011;53438;48.898;2.308;2023-07-09T06:19:56;6.38;;;3.83;;
66581;SDS011;53438;48.898;2.308;2023-07-09T06:22:21;6.20;;;3.67;;
66581;SDS011;53438;48.898;2.308;2023-07-09T06:24:47;8.63;;;3.50;;
66581;SDS011;53438;48.898;2.308;2023-07-09T06:27:12;6.67;;;4.10;;
66581;SDS011;53438;48.898;2.308;2023-07-09T06:29:38;5.80;;;3.43;;
66581;SDS011;53438;48.898;2.308;2023-07-09T06:32:03;6.32;;;3.20;;
66581;SDS011;53438;48.898;2.308;2023-07-09T06:34:29;6.80;;;3.92;;
66581;SDS011;53438;48.898;2.308;2023-07-09T06:36:55;6.60;;;3.47;;
66581;SDS011;53438;48.898;2.308;2023-07-09T06:39:21;6.20;;;3.20;;
66581;SDS011;53438;48.898;2.308;2023-07-09T06:41:47;5.80;;;2.80;;
66581;SDS011;53438;48.898;2.308;2023-07-09T06:44:13;4.20;;;2.90;;
66581;SDS011;53438;48.898;2.308;2023-07-09T06:46:39;5.37;;;3.53;;
66581;SDS011;53438;48.898;2.308;2023-07-09T06:49:04;5.97;;;4.00;;
66581;SDS011;53438;48.898;2.308;2023-07-09T06:51:32;8.43;;;3.30;;
66581;SDS011;53438;48.898;2.308;2023-07-09T06:53:58;6.23;;;3.40;;
66581;SDS011;53438;48.898;2.308;2023-07-09T06:56:23;4.35;;;3.10;;
66581;SDS011;53438;48.898;2.308;2023-07-09T06:58:49;8.20;;;3.30;;
66581;SDS011;53438;48.898;2.308;2023-07-09T07:01:14;7.17;;;3.80;;
66581;SDS011;53438;48.898;2.308;2023-07-09T07:03:40;5.43;;;3.17;;
66581;SDS011;53438;48.898;2.308;2023-07-09T07:06:05;4.40;;;3.13;;
66581;SDS011;53438;48.898;2.308;2023-07-09T07:08:32;7.82;;;3.80;;
66581;SDS011;53438;48.898;2.308;2023-07-09T07:10:58;5.20;;;3.55;;
66581;SDS011;53438;48.898;2.308;2023-07-09T07:13:32;6.03;;;3.55;;
66581;SDS011;53438;48.898;2.308;2023-07-09T07:16:04;8.45;;;3.28;;
66581;SDS011;53438;48.898;2.308;2023-07-09T07:18:31;5.47;;;3.72;;
66581;SDS011;53438;48.898;2.308;2023-07-09T07:20:56;6.80;;;3.57;;
66581;SDS011;53438;48.898;2.308;2023-07-09T07:23:22;4.13;;;3.30;;
66581;SDS011;53438;48.898;2.308;2023-07-09T07:25:48;8.63;;;3.75;;
66581;SDS011;53438;48.898;2.308;2023-07-09T07:28:13;6.87;;;4.10;;
66581;SDS011;53438;48.898;2.308;2023-07-09T07:30:41;8.15;;;3.90;;
66581;SDS011;53438;48.898;2.308;2023-07-09T07:33:07;8.18;;;4.15;;
66581;SDS011;53438;48.898;2.308;2023-07-09T07:35:32;9.23;;;4.20;;
66581;SDS011;53438;48.898;2.308;2023-07-09T07:37:58;6.40;;;4.00;;
66581;SDS011;53438;48.898;2.308;2023-07-09T07:40:23;6.90;;;3.90;;
66581;SDS011;53438;48.898;2.308;2023-07-09T07:42:48;6.73;;;3.50;;
66581;SDS011;53438;48.898;2.308;2023-07-09T07:45:14;6.10;;;3.17;;
66581;SDS011;53438;48.898;2.308;2023-07-09T07:47:39;5.93;;;3.03;;
66581;SDS011;53438;48.898;2.308;2023-07-09T07:50:06;6.38;;;3.85;;
66581;SDS011;53438;48.898;2.308;2023-07-09T07:52:32;5.95;;;4.25;;
66581;SDS011;53438;48.898;2.308;2023-07-09T07:54:58;8.98;;;3.75;;
66581;SDS011;53438;48.898;2.308;2023-07-09T07:57:26;6.63;;;3.53;;
66581;SDS011;53438;48.898;2.308;2023-07-09T07:59:52;6.77;;;3.67;;
66581;SDS011;53438;48.898;2.308;2023-07-09T08:02:17;6.40;;;3.70;;
66581;SDS011;53438;48.898;2.308;2023-07-09T08:04:42;7.05;;;3.95;;
66581;SDS011;53438;48.898;2.308;2023-07-09T08:07:08;6.77;;;3.57;;
66581;SDS011;53438;48.898;2.308;2023-07-09T08:09:35;5.90;;;3.42;;
66581;SDS011;53438;48.898;2.308;2023-07-09T08:12:01;7.57;;;3.55;;
66581;SDS011;53438;48.898;2.308;2023-07-09T08:14:35;6.22;;;3.55;;
66581;SDS011;53438;48.898;2.308;2023-07-09T08:17:01;7.10;;;3.72;;
66581;SDS011;53438;48.898;2.308;2023-07-09T08:19:26;5.40;;;3.45;;
66581;SDS011;53438;48.898;2.308;2023-07-09T08:21:52;9.80;;;4.57;;
66581;SDS011;53438;48.898;2.308;2023-07-09T08:24:18;7.43;;;4.07;;
66581;SDS011;53438;48.898;2.308;2023-07-09T08:26:43;11.10;;;3.97;;
66581;SDS011;53438;48.898;2.308;2023-07-09T08:29:09;8.10;;;3.83;;
66581;SDS011;53438;48.898;2.308;2023-07-09T08:31:34;8.30;;;3.90;;
66581;SDS011;53438;48.898;2.308;2023-07-09T08:34:00;5.45;;;3.67;;
66581;SDS011;53438;48.898;2.308;2023-07-09T08:36:25;6.27;;;3.50;;
66581;SDS011;53438;48.898;2.308;2023-07-09T08:38:50;9.53;;;3.97;;
66581;SDS011;53438;48.898;2.308;2023-07-09T08:48:56;7.47;;;3.72;;
66581;SDS011;53438;48.898;2.308;2023-07-09T08:51:28;10.73;;;4.60;;
66581;SDS011;53438;48.898;2.308;2023-07-09T08:54:04;7.30;;;3.93;;
66581;SDS011;53438;48.898;2.308;2023-07-09T08:56:38;7.30;;;3.67;;
66581;SDS011;53438;48.898;2.308;2023-07-09T08:59:04;7.32;;;3.95;;
66581;SDS011;53438;48.898;2.308;2023-07-09T09:01:34;6.60;;;3.93;;
66581;SDS011;53438;48.898;2.308;2023-07-09T09:04:15;6.45;;;3.60;;
66581;SDS011;53438;48.898;2.308;2023-07-09T09:06:44;7.73;;;3.80;;
66581;SDS011;53438;48.898;2.308;2023-07-09T09:09:22;7.80;;;3.65;;
66581;SDS011;53438;48.898;2.308;2023-07-09T09:14:44;7.40;;;3.38;;
66581;SDS011;53438;48.898;2.308;2023-07-09T09:17:18;6.40;;;4.20;;
66581;SDS011;53438;48.898;2.308;2023-07-09T09:19:53;7.17;;;4.27;;
66581;SDS011;53438;48.898;2.308;2023-07-09T09:22:28;6.95;;;3.83;;
66581;SDS011;53438;48.898;2.308;2023-07-09T09:25:04;8.40;;;4.05;;
66581;SDS011;53438;48.898;2.308;2023-07-09T09:27:43;7.60;;;3.78;;
66581;SDS011;53438;48.898;2.308;2023-07-09T09:30:11;7.23;;;3.83;;
66581;SDS011;53438;48.898;2.308;2023-07-09T09:32:42;3.80;;;3.08;;
66581;SDS011;53438;48.898;2.308;2023-07-09T09:35:14;7.65;;;3.50;;
66581;SDS011;53438;48.898;2.308;2023-07-09T09:37:43;7.65;;;4.03;;
66581;SDS011;53438;48.898;2.308;2023-07-09T09:40:17;8.77;;;4.47;;
66581;SDS011;53438;48.898;2.308;2023-07-09T09:42:47;6.83;;;3.23;;
66581;SDS011;53438;48.898;2.308;2023-07-09T09:45:13;7.40;;;3.78;;
66581;SDS011;53438;48.898;2.308;2023-07-09T09:47:42;7.05;;;3.58;;
66581;SDS011;53438;48.898;2.308;2023-07-09T09:50:10;10.00;;;3.78;;
66581;SDS011;53438;48.898;2.308;2023-07-09T09:52:39;7.32;;;4.10;;
66581;SDS011;53438;48.898;2.308;2023-07-09T09:55:10;8.23;;;4.03;;
66581;SDS011;53438;48.898;2.308;2023-07-09T09:57:46;7.17;;;3.83;;
66581;SDS011;53438;48.898;2.308;2023-07-09T10:00:13;9.70;;;4.70;;
66581;SDS011;53438;48.898;2.308;2023-07-09T10:02:41;8.30;;;4.50;;
66581;SDS011;53438;48.898;2.308;2023-07-09T10:05:16;8.13;;;4.05;;
66581;SDS011;53438;48.898;2.308;2023-07-09T10:07:55;9.02;;;4.90;;
66581;SDS011;53438;48.898;2.308;2023-07-09T10:10:42;5.97;;;4.00;;
66581;SDS011;53438;48.898;2.308;2023-07-09T10:13:15;16.55;;;5.97;;
66581;SDS011;53438;48.898;2.308;2023-07-09T10:16:07;5.35;;;3.97;;
66581;SDS011;53438;48.898;2.308;2023-07-09T10:18:39;11.13;;;3.92;;
66581;SDS011;53438;48.898;2.308;2023-07-09T10:21:23;8.13;;;5.25;;
66581;SDS011;53438;48.898;2.308;2023-07-09T10:26:59;8.90;;;4.20;;
66581;SDS011;53438;48.898;2.308;2023-07-09T10:29:38;7.13;;;4.47;;
66581;SDS011;53438;48.898;2.308;2023-07-09T10:32:24;9.48;;;4.47;;
66581;SDS011;53438;48.898;2.308;2023-07-09T10:40:43;6.43;;;4.57;;
66581;SDS011;53438;48.898;2.308;2023-07-09T10:43:13;9.13;;;5.05;;
66581;SDS011;53438;48.898;2.308;2023-07-09T10:45:53;8.07;;;4.90;;
66581;SDS011;53438;48.898;2.308;2023-07-09T10:48:31;7.28;;;4.45;;
66581;SDS011;53438;48.898;2.308;2023-07-09T10:51:00;7.47;;;4.07;;
66581;SDS011;53438;48.898;2.308;2023-07-09T10:53:32;7.28;;;4.30;;
66581;SDS011;53438;48.898;2.308;2023-07-09T10:56:10;9.40;;;5.30;;
66581;SDS011;53438;48.898;2.308;2023-07-09T10:58:43;10.82;;;6.22;;
66581;SDS011;53438;48.898;2.308;2023-07-09T11:01:12;14.60;;;7.75;;
66581;SDS011;53438;48.898;2.308;2023-07-09T11:03:42;9.73;;;6.20;;
66581;SDS011;53438;48.898;2.308;2023-07-09T11:06:20;11.18;;;6.18;;
66581;SDS011;53438;48.898;2.308;2023-07-09T11:09:01;7.13;;;4.65;;
66581;SDS011;53438;48.898;2.308;2023-07-09T11:12:04;7.47;;;4.32;;
66581;SDS011;53438;48.898;2.308;2023-07-09T11:14:45;6.43;;;4.38;;
66581;SDS011;53438;48.898;2.308;2023-07-09T11:17:14;10.53;;;5.37;;
66581;SDS011;53438;48.898;2.308;2023-07-09T11:19:46;8.82;;;4.03;;
66581;SDS011;53438;48.898;2.308;2023-07-09T11:22:22;6.82;;;4.78;;
66581;SDS011;53438;48.898;2.308;2023-07-09T11:27:22;6.90;;;4.97;;
66581;SDS011;53438;48.898;2.308;2023-07-09T11:30:00;9.63;;;4.80;;
66581;SDS011;53438;48.898;2.308;2023-07-09T11:32:28;6.40;;;4.20;;
66581;SDS011;53438;48.898;2.308;2023-07-09T11:34:54;7.53;;;4.25;;
66581;SDS011;53438;48.898;2.308;2023-07-09T11:37:22;7.07;;;4.20;;
66581;SDS011;53438;48.898;2.308;2023-07-09T11:39:50;7.53;;;3.90;;
66581;SDS011;53438;48.898;2.308;2023-07-09T11:50:30;5.70;;;3.97;;
66581;SDS011;53438;48.898;2.308;2023-07-09T11:55:41;6.20;;;4.38;;
66581;SDS011;53438;48.898;2.308;2023-07-09T11:58:16;6.32;;;4.00;;
66581;SDS011;53438;48.898;2.308;2023-07-09T12:00:46;6.82;;;4.22;;
66581;SDS011;53438;48.898;2.308;2023-07-09T12:05:49;5.53;;;4.28;;
66581;SDS011;53438;48.898;2.308;2023-07-09T12:08:19;9.70;;;4.90;;
66581;SDS011;53438;48.898;2.308;2023-07-09T12:10:51;9.13;;;4.00;;
66581;SDS011;53438;48.898;2.308;2023-07-09T12:13:18;6.57;;;3.92;;
66581;SDS011;53438;48.898;2.308;2023-07-09T12:15:43;6.10;;;3.80;;
66581;SDS011;53438;48.898;2.308;2023-07-09T12:18:12;6.13;;;3.77;;
66581;SDS011;53438;48.898;2.308;2023-07-09T12:20:40;6.68;;;3.83;;
66581;SDS011;53438;48.898;2.308;2023-07-09T12:23:27;7.27;;;5.87;;
66581;SDS011;53438;48.898;2.308;2023-07-09T12:25:54;5.65;;;3.05;;
66581;SDS011;53438;48.898;2.308;2023-07-09T12:28:21;8.98;;;3.83;;
66581;SDS011;53438;48.898;2.308;2023-07-09T12:30:47;4.97;;;3.33;;
66581;SDS011;53438;48.898;2.308;2023-07-09T12:33:18;5.85;;;3.65;;
66581;SDS011;53438;48.898;2.308;2023-07-09T12:35:45;4.90;;;3.40;;
66581;SDS011;53438;48.898;2.308;2023-07-09T12:38:22;6.40;;;2.80;;
66581;SDS011;53438;48.898;2.308;2023-07-09T12:40:49;4.32;;;3.13;;
66581;SDS011;53438;48.898;2.308;2023-07-09T12:43:34;5.72;;;2.70;;
66581;SDS011;53438;48.898;2.308;2023-07-09T12:45:59;4.03;;;2.40;;
66581;SDS011;53438;48.898;2.308;2023-07-09T12:48:26;6.07;;;3.43;;
66581;SDS011;53438;48.898;2.308;2023-07-09T12:50:56;5.20;;;2.80;;
66581;SDS011;53438;48.898;2.308;2023-07-09T12:53:24;4.72;;;2.70;;
66581;SDS011;53438;48.898;2.308;2023-07-09T12:55:58;5.00;;;2.40;;
66581;SDS011;53438;48.898;2.308;2023-07-09T12:58:25;5.03;;;2.97;;
66581;SDS011;53438;48.898;2.308;2023-07-09T13:00:55;6.60;;;2.95;;
66581;SDS011;53438;48.898;2.308;2023-07-09T13:03:24;6.35;;;3.08;;
66581;SDS011;53438;48.898;2.308;2023-07-09T13:06:04;4.72;;;3.10;;
66581;SDS011;53438;48.898;2.308;2023-07-09T13:08:54;5.40;;;2.90;;
66581;SDS011;53438;48.898;2.308;2023-07-09T13:11:22;4.53;;;2.58;;
66581;SDS011;53438;48.898;2.308;2023-07-09T13:13:54;6.27;;;2.47;;
66581;SDS011;53438;48.898;2.308;2023-07-09T13:16:23;9.90;;;3.20;;
66581;SDS011;53438;48.898;2.308;2023-07-09T13:18:49;6.03;;;2.70;;
66581;SDS011;53438;48.898;2.308;2023-07-09T13:21:18;4.33;;;2.50;;
66581;SDS011;53438;48.898;2.308;2023-07-09T13:23:45;4.53;;;2.78;;
66581;SDS011;53438;48.898;2.308;2023-07-09T13:26:11;4.97;;;2.95;;
66581;SDS011;53438;48.898;2.308;2023-07-09T13:28:38;5.67;;;3.30;;
66581;SDS011;53438;48.898;2.308;2023-07-09T13:31:11;7.20;;;3.22;;
66581;SDS011;53438;48.898;2.308;2023-07-09T13:33:45;5.50;;;3.00;;
66581;SDS011;53438;48.898;2.308;2023-07-09T13:36:17;6.88;;;3.78;;
66581;SDS011;53438;48.898;2.308;2023-07-09T13:38:42;6.23;;;2.93;;
66581;SDS011;53438;48.898;2.308;2023-07-09T13:41:13;4.87;;;2.60;;
66581;SDS011;53438;48.898;2.308;2023-07-09T13:43:44;6.25;;;2.72;;
66581;SDS011;53438;48.898;2.308;2023-07-09T13:46:11;4.95;;;2.55;;
66581;SDS011;53438;48.898;2.308;2023-07-09T13:48:38;5.67;;;3.00;;
66581;SDS011;53438;48.898;2.308;2023-07-09T13:53:38;4.88;;;2.97;;
66581;SDS011;53438;48.898;2.308;2023-07-09T13:56:04;4.17;;;2.60;;
66581;SDS011;53438;48.898;2.308;2023-07-09T13:58:29;5.07;;;3.10;;
66581;SDS011;53438;48.898;2.308;2023-07-09T14:00:56;4.53;;;3.00;;
66581;SDS011;53438;48.898;2.308;2023-07-09T14:03:31;4.72;;;3.00;;
66581;SDS011;53438;48.898;2.308;2023-07-09T14:05:57;5.30;;;3.10;;
66581;SDS011;53438;48.898;2.308;2023-07-09T14:08:23;3.63;;;2.40;;
66581;SDS011;53438;48.898;2.308;2023-07-09T14:10:48;4.37;;;2.90;;
66581;SDS011;53438;48.898;2.308;2023-07-09T14:13:15;4.07;;;2.90;;
66581;SDS011;53438;48.898;2.308;2023-07-09T14:15:43;10.20;;;6.30;;
66581;SDS011;53438;48.898;2.308;2023-07-09T14:18:16;7.38;;;5.07;;
66581;SDS011;53438;48.898;2.308;2023-07-09T14:20:43;10.50;;;7.28;;
66581;SDS011;53438;48.898;2.308;2023-07-09T14:23:12;6.17;;;3.77;;
66581;SDS011;53438;48.898;2.308;2023-07-09T14:25:40;5.97;;;3.00;;
66581;SDS011;53438;48.898;2.308;2023-07-09T14:28:08;6.40;;;3.73;;
66581;SDS011;53438;48.898;2.308;2023-07-09T14:30:36;8.13;;;4.43;;
66581;SDS011;53438;48.898;2.308;2023-07-09T14:33:02;6.45;;;4.22;;
66581;SDS011;53438;48.898;2.308;2023-07-09T14:35:29;6.88;;;3.10;;
66581;SDS011;53438;48.898;2.308;2023-07-09T14:37:55;5.70;;;3.07;;
66581;SDS011;53438;48.898;2.308;2023-07-09T14:40:20;3.53;;;2.63;;
66581;SDS011;53438;48.898;2.308;2023-07-09T14:42:47;5.18;;;2.85;;
66581;SDS011;53438;48.898;2.308;2023-07-09T14:47:48;5.45;;;2.45;;
66581;SDS011;53438;48.898;2.308;2023-07-09T14:50:14;5.00;;;2.87;;
66581;SDS011;53438;48.898;2.308;2023-07-09T14:52:41;4.15;;;2.65;;
66581;SDS011;53438;48.898;2.308;2023-07-09T14:55:18;3.55;;;2.30;;
66581;SDS011;53438;48.898;2.308;2023-07-09T14:57:45;3.50;;;2.58;;
66581;SDS011;53438;48.898;2.308;2023-07-09T15:00:14;3.95;;;2.65;;
66581;SDS011;53438;48.898;2.308;2023-07-09T15:02:44;3.67;;;2.87;;
66581;SDS011;53438;48.898;2.308;2023-07-09T15:05:20;4.93;;;2.85;;
66581;SDS011;53438;48.898;2.308;2023-07-09T15:07:47;3.55;;;2.35;;
66581;SDS011;53438;48.898;2.308;2023-07-09T15:10:23;4.75;;;2.70;;
66581;SDS011;53438;48.898;2.308;2023-07-09T15:12:52;7.77;;;2.83;;
66581;SDS011;53438;48.898;2.308;2023-07-09T15:15:22;4.85;;;2.38;;
66581;SDS011;53438;48.898;2.308;2023-07-09T15:17:50;7.10;;;3.03;;
66581;SDS011;53438;48.898;2.308;2023-07-09T15:20:20;6.30;;;4.07;;
66581;SDS011;53438;48.898;2.308;2023-07-09T15:22:47;10.18;;;7.15;;
66581;SDS011;53438;48.898;2.308;2023-07-09T15:25:21;5.57;;;3.13;;
66581;SDS011;53438;48.898;2.308;2023-07-09T15:27:50;3.95;;;2.83;;
66581;SDS011;53438;48.898;2.308;2023-07-09T15:30:20;5.35;;;3.38;;
66581;SDS011;53438;48.898;2.308;2023-07-09T15:32:50;6.27;;;3.20;;
66581;SDS011;53438;48.898;2.308;2023-07-09T15:35:17;5.38;;;2.97;;
66581;SDS011;53438;48.898;2.308;2023-07-09T15:37:44;4.05;;;3.10;;
66581;SDS011;53438;48.898;2.308;2023-07-09T15:42:58;4.38;;;2.75;;
66581;SDS011;53438;48.898;2.308;2023-07-09T15:45:27;6.43;;;2.73;;
66581;SDS011;53438;48.898;2.308;2023-07-09T15:47:53;6.63;;;2.73;;
66581;SDS011;53438;48.898;2.308;2023-07-09T15:50:22;4.40;;;3.00;;
66581;SDS011;53438;48.898;2.308;2023-07-09T15:52:50;4.78;;;2.60;;
66581;SDS011;53438;48.898;2.308;2023-07-09T15:55:26;3.93;;;2.77;;
66581;SDS011;53438;48.898;2.308;2023-07-09T15:57:53;4.60;;;2.90;;
66581;SDS011;53438;48.898;2.308;2023-07-09T16:00:20;5.10;;;3.08;;
66581;SDS011;53438;48.898;2.308;2023-07-09T16:02:48;5.72;;;3.20;;
66581;SDS011;53438;48.898;2.308;2023-07-09T16:05:25;6.47;;;3.25;;
66581;SDS011;53438;48.898;2.308;2023-07-09T16:07:53;6.97;;;3.20;;
66581;SDS011;53438;48.898;2.308;2023-07-09T16:10:20;4.88;;;2.72;;
66581;SDS011;53438;48.898;2.308;2023-07-09T16:12:47;4.68;;;2.65;;
66581;SDS011;53438;48.898;2.308;2023-07-09T16:15:15;3.45;;;2.45;;
66581;SDS011;53438;48.898;2.308;2023-07-09T16:17:42;3.22;;;2.42;;
66581;SDS011;53438;48.898;2.308;2023-07-09T16:20:12;4.60;;;2.70;;
66581;SDS011;53438;48.898;2.308;2023-07-09T16:22:40;6.90;;;2.88;;
66581;SDS011;53438;48.898;2.308;2023-07-09T16:25:17;4.38;;;2.45;;
66581;SDS011;53438;48.898;2.308;2023-07-09T16:27:45;4.47;;;2.10;;
66581;SDS011;53438;48.898;2.308;2023-07-09T16:30:21;4.72;;;2.33;;
66581;SDS011;53438;48.898;2.308;2023-07-09T16:32:49;5.07;;;2.50;;
66581;SDS011;53438;48.898;2.308;2023-07-09T16:35:16;3.33;;;2.30;;
66581;SDS011;53438;48.898;2.308;2023-07-09T16:37:46;3.78;;;2.20;;
66581;SDS011;53438;48.898;2.308;2023-07-09T16:42:39;4.68;;;2.60;;
66581;SDS011;53438;48.898;2.308;2023-07-09T16:45:05;6.00;;;2.47;;
66581;SDS011;53438;48.898;2.308;2023-07-09T16:47:30;6.33;;;2.70;;
66581;SDS011;53438;48.898;2.308;2023-07-09T16:49:56;3.67;;;2.45;;
66581;SDS011;53438;48.898;2.308;2023-07-09T16:52:22;4.27;;;2.40;;
66581;SDS011;53438;48.898;2.308;2023-07-09T16:54:50;4.95;;;2.22;;
66581;SDS011;53438;48.898;2.308;2023-07-09T16:57:17;4.33;;;2.40;;
66581;SDS011;53438;48.898;2.308;2023-07-09T16:59:45;4.70;;;2.35;;
66581;SDS011;53438;48.898;2.308;2023-07-09T17:02:28;5.47;;;2.75;;
66581;SDS011;53438;48.898;2.308;2023-07-09T17:05:01;4.22;;;2.80;;
66581;SDS011;53438;48.898;2.308;2023-07-09T17:07:32;5.30;;;2.80;;
66581;SDS011;53438;48.898;2.308;2023-07-09T17:09:58;5.50;;;2.70;;
66581;SDS011;53438;48.898;2.308;2023-07-09T17:12:24;3.17;;;2.28;;
66581;SDS011;53438;48.898;2.308;2023-07-09T17:14:49;6.27;;;2.60;;
66581;SDS011;53438;48.898;2.308;2023-07-09T17:17:16;4.07;;;2.38;;
66581;SDS011;53438;48.898;2.308;2023-07-09T17:19:43;4.25;;;2.42;;
66581;SDS011;53438;48.898;2.308;2023-07-09T17:24:46;4.82;;;2.58;;
66581;SDS011;53438;48.898;2.308;2023-07-09T17:27:11;3.80;;;1.83;;
66581;SDS011;53438;48.898;2.308;2023-07-09T17:29:38;4.53;;;2.90;;
66581;SDS011;53438;48.898;2.308;2023-07-09T17:32:05;5.10;;;2.30;;
66581;SDS011;53438;48.898;2.308;2023-07-09T17:34:31;4.63;;;2.90;;
66581;SDS011;53438;48.898;2.308;2023-07-09T17:36:56;5.72;;;2.60;;
66581;SDS011;53438;48.898;2.308;2023-07-09T17:39:22;6.20;;;2.50;;
66581;SDS011;53438;48.898;2.308;2023-07-09T17:41:50;5.15;;;2.50;;
66581;SDS011;53438;48.898;2.308;2023-07-09T17:44:21;5.45;;;2.63;;
66581;SDS011;53438;48.898;2.308;2023-07-09T17:46:48;4.78;;;3.30;;
66581;SDS011;53438;48.898;2.308;2023-07-09T17:49:16;5.57;;;2.70;;
66581;SDS011;53438;48.898;2.308;2023-07-09T17:51:44;4.80;;;2.50;;
66581;SDS011;53438;48.898;2.308;2023-07-09T17:54:17;5.60;;;2.63;;
66581;SDS011;53438;48.898;2.308;2023-07-09T17:56:44;4.90;;;2.00;;
66581;SDS011;53438;48.898;2.308;2023-07-09T17:59:12;5.38;;;2.10;;
66581;SDS011;53438;48.898;2.308;2023-07-09T18:01:40;5.30;;;2.17;;
66581;SDS011;53438;48.898;2.308;2023-07-09T18:04:16;6.07;;;2.30;;
66581;SDS011;53438;48.898;2.308;2023-07-09T18:06:46;4.93;;;2.60;;
66581;SDS011;53438;48.898;2.308;2023-07-09T18:09:17;4.85;;;2.33;;
66581;SDS011;53438;48.898;2.308;2023-07-09T18:11:44;4.90;;;2.63;;
66581;SDS011;53438;48.898;2.308;2023-07-09T18:14:23;4.00;;;2.50;;
66581;SDS011;53438;48.898;2.308;2023-07-09T18:16:51;5.10;;;2.60;;
66581;SDS011;53438;48.898;2.308;2023-07-09T18:19:22;4.47;;;2.13;;
66581;SDS011;53438;48.898;2.308;2023-07-09T18:21:49;4.88;;;2.30;;
66581;SDS011;53438;48.898;2.308;2023-07-09T18:24:15;5.32;;;2.60;;
66581;SDS011;53438;48.898;2.308;2023-07-09T18:26:42;5.07;;;2.80;;
66581;SDS011;53438;48.898;2.308;2023-07-09T18:29:25;6.60;;;2.90;;
66581;SDS011;53438;48.898;2.308;2023-07-09T18:31:55;5.28;;;2.75;;
66581;SDS011;53438;48.898;2.308;2023-07-09T18:34:20;4.13;;;2.60;;
66581;SDS011;53438;48.898;2.308;2023-07-09T18:36:46;7.27;;;3.17;;
66581;SDS011;53438;48.898;2.308;2023-07-09T18:39:11;6.00;;;2.50;;
66581;SDS011;53438;48.898;2.308;2023-07-09T18:41:37;10.47;;;2.67;;
66581;SDS011;53438;48.898;2.308;2023-07-09T18:44:09;3.67;;;2.93;;